Peterlee, United Kingdom
Current Conditions -  °F | °C
As of 9:20 PM on Friday 28 Nov 2014 (Local Time) from EGNV Reporting Station
Drizzle Drizzle  
Wind Chill: 45°   Ceiling: 600
Heat Index: 48°   Visibility: 1.8mi
Dew Point: 46°   Wind: 7mph
Humidity: 93%   Direction: 70°ENE
Pressure: 29.85"   Gusts: NA
Location:  54.76°N, 1.33°W
Report Text: EGNV 282120Z 07006KT 3000 -DZ BR FEW003 BKN006 09/08 Q1011
Loading
Personal Weather Stations






























Interactive Weather Map New forecast layout! Learn more

10-Day Weather Forecast

Advertisements
Track Severe Weather on mobile